Time;durP1;ratioP1;P1;durP2;ratioP2;P2;SDS_P1;SDS_P2;PMS_P1;PMS_P2;Temp;Humidity;BMP_temperature;BMP_pressure;BME280_temperature;BME280_humidity;BME280_pressure;Samples;Min_cycle;Max_cycle;Signal;HPM_P1;HPM_P2
2022/01/03 00:01:44;;;;;;;7.90;4.90;;;10.60;99.90;;;10.83;70.58;100191.25;4896996;29;20922;-73
2022/01/03 00:04:16;;;;;;;5.00;4.50;;;10.60;99.90;;;10.71;70.83;100195.69;4897300;29;20858;-73
2022/01/03 00:06:45;;;;;;;8.83;6.90;;;10.60;99.90;;;10.78;70.87;100190.25;4897044;29;21052;-73
2022/01/03 00:09:13;;;;;;;7.10;4.83;;;10.60;99.90;;;10.72;71.07;100175.72;4897187;29;20454;-73
2022/01/03 00:11:47;;;;;;;7.67;5.50;;;10.60;99.90;;;10.88;70.39;100175.16;4896901;29;20518;-71
2022/01/03 00:14:16;;;;;;;8.53;5.50;;;10.70;99.90;;;10.64;71.10;100170.59;4896186;29;20950;-74
2022/01/03 00:16:46;;;;;;;9.13;6.07;;;10.60;99.90;;;10.77;70.83;100172.34;4895533;29;20480;-73
2022/01/03 00:19:14;;;;;;;10.30;8.27;;;10.60;99.90;;;10.69;71.11;100170.75;4896291;29;20451;-74
2022/01/03 00:21:46;;;;;;;10.47;7.40;;;10.50;99.90;;;10.72;70.99;100164.06;4895888;29;20446;-71
2022/01/03 00:24:25;;;;;;;5.80;5.17;;;10.60;99.90;;;10.65;70.99;100169.50;4896516;29;20440;-73
2022/01/03 00:27:03;;;;;;;8.30;5.07;;;10.60;99.90;;;10.84;70.30;100168.53;4898973;29;20465;-72
2022/01/03 00:29:44;;;;;;;8.10;4.57;;;10.60;99.90;;;10.74;70.51;100162.81;4914014;29;20468;-72
2022/01/03 00:32:14;;;;;;;7.70;4.20;;;10.60;99.90;;;10.84;70.14;100163.09;4897558;29;20473;-71
2022/01/03 00:34:45;;;;;;;6.47;4.20;;;10.60;99.90;;;10.78;70.37;100155.06;4898000;29;20976;-72
2022/01/03 00:37:15;;;;;;;8.07;5.03;;;10.60;99.90;;;10.85;70.26;100162.06;4899145;29;20461;-72
2022/01/03 00:39:43;;;;;;;4.40;4.00;;;10.70;99.90;;;10.73;71.10;100155.72;4899071;29;20434;-72
2022/01/03 00:42:15;;;;;;;4.97;3.40;;;10.60;99.90;;;10.66;71.81;100143.28;4898901;29;20423;-72
2022/01/03 00:44:44;;;;;;;5.43;4.50;;;10.50;99.90;;;10.78;71.68;100147.78;4899307;29;20441;-71
2022/01/03 00:47:16;;;;;;;7.23;4.87;;;10.60;99.90;;;10.80;72.17;100148.38;4897622;29;20462;-71
2022/01/03 00:49:45;;;;;;;5.47;4.73;;;10.60;99.90;;;10.64;72.69;100143.53;4897557;29;20435;-72
2022/01/03 00:52:14;;;;;;;7.37;5.13;;;10.50;99.90;;;10.65;72.55;100142.44;4899101;29;20458;-72
2022/01/03 00:54:42;;;;;;;4.77;4.37;;;10.50;99.90;;;10.51;72.74;100143.59;4898882;29;20529;-73
2022/01/03 00:57:25;;;;;;;5.60;5.00;;;10.50;99.90;;;10.49;73.44;100139.47;4897793;29;20449;-71
2022/01/03 01:00:03;;;;;;;6.70;4.97;;;10.40;99.90;;;10.44;73.71;100140.16;4897711;29;20876;-74
2022/01/03 01:02:37;;;;;;;5.90;4.30;;;10.40;99.90;;;10.39;74.63;100137.25;4898318;29;20434;-73
2022/01/03 01:05:07;;;;;;;5.80;4.07;;;10.30;99.90;;;10.23;75.35;100133.22;4897221;29;20808;-71
2022/01/03 01:07:40;;;;;;;4.67;3.80;;;10.20;99.90;;;10.21;76.24;100120.97;4923829;23;20921;-74
2022/01/03 01:10:09;;;;;;;6.23;4.27;;;10.10;1.00;;;10.13;76.45;100121.19;4921669;29;20437;-72
2022/01/03 01:12:38;;;;;;;4.80;4.20;;;10.10;1.00;;;10.04;77.43;100118.75;4917611;29;20536;-72
2022/01/03 01:15:08;;;;;;;7.00;5.13;;;10.00;99.90;;;9.95;77.46;100125.47;4913132;29;20472;-69
2022/01/03 01:17:38;;;;;;;6.80;4.27;;;10.00;99.90;;;9.91;77.75;100124.22;4913352;29;20441;-72
2022/01/03 01:20:09;;;;;;;4.80;4.00;;;9.90;99.90;;;9.91;78.05;100126.94;4922406;23;20451;-67
2022/01/03 01:22:38;;;;;;;5.40;3.80;;;9.80;1.00;;;9.80;78.51;100116.81;4918968;29;20444;-67
2022/01/03 01:25:26;;;;;;;6.87;4.93;;;9.70;1.00;;;9.91;78.08;100107.19;4920867;29;20496;-68
2022/01/03 01:27:56;;;;;;;4.60;3.30;;;9.80;99.90;;;9.91;78.37;100113.44;4917227;29;20461;-67
2022/01/03 01:30:29;;;;;;;4.97;4.47;;;9.80;99.90;;;9.85;78.34;100086.44;4915958;29;20477;-65
2022/01/03 01:33:05;;;;;;;5.07;4.57;;;9.80;1.00;;;9.82;77.98;100081.47;4915989;29;20516;-67
2022/01/03 01:35:46;;;;;;;10.27;3.92;;;9.70;99.90;;;9.79;78.27;100077.31;4915033;29;20452;-66
2022/01/03 01:38:21;;;;;;;4.28;3.50;;;9.70;99.90;;;9.69;78.48;100070.72;4916967;29;20205;-66
2022/01/03 01:40:53;;;;;;;6.73;4.20;;;9.60;99.90;;;9.79;78.47;100074.63;4915605;29;20707;-66
2022/01/03 01:43:33;;;;;;;4.50;3.93;;;9.60;1.00;;;9.82;78.29;100066.09;4915547;29;20836;-69
2022/01/03 01:46:08;;;;;;;6.37;4.00;;;9.60;1.00;;;9.85;78.29;100062.09;4915401;29;20427;-67
2022/01/03 01:48:44;;;;;;;6.93;3.75;;;9.70;1.00;;;9.80;78.49;100062.75;4915342;29;20536;-66
2022/01/03 01:51:16;;;;;;;6.20;3.10;;;9.70;1.00;;;9.81;78.46;100064.44;4915365;29;20276;-67
2022/01/03 01:53:51;;;;;;;5.00;3.33;;;9.60;1.00;;;9.76;78.63;100058.00;4915351;29;20469;-67
2022/01/03 01:56:27;;;;;;;4.30;3.25;;;9.60;1.00;;;9.65;78.85;100061.41;4916495;29;20185;-65
2022/01/03 01:59:19;;;;;;;4.03;2.97;;;9.60;1.00;;;9.70;78.56;100050.75;4915375;29;20227;-67
2022/01/03 02:01:57;;;;;;;4.32;3.20;;;9.60;1.00;;;9.79;78.39;100065.69;4915375;29;20642;-67
2022/01/03 02:04:44;;;;;;;5.05;3.05;;;9.60;1.00;;;9.82;78.57;100060.69;4915250;29;20193;-67
2022/01/03 02:07:39;;;;;;;4.77;4.03;;;9.60;86.90;;;9.74;78.87;100063.63;4915126;29;20572;-67
2022/01/03 02:10:11;;;;;;;6.00;3.00;;;9.60;1.00;;;9.73;79.17;100059.25;4916333;29;20445;-66
2022/01/03 02:12:46;;;;;;;3.33;2.78;;;9.60;99.90;;;9.79;78.88;100061.09;4914816;29;20525;-68
2022/01/03 02:15:19;;;;;;;7.38;3.10;;;9.60;99.90;;;9.63;79.24;100053.53;4914765;29;20193;-66
2022/01/03 02:17:50;;;;;;;4.30;3.00;;;9.50;99.90;;;9.63;79.22;100058.94;4914929;29;20285;-67
2022/01/03 02:20:26;;;;;;;2.55;2.35;;;9.50;1.00;;;9.59;78.98;100049.56;4914684;29;20481;-67
2022/01/03 02:23:04;;;;;;;5.72;2.42;;;9.50;99.90;;;9.62;78.74;100049.16;4915058;29;20276;-67
2022/01/03 02:25:35;;;;;;;3.35;2.47;;;9.50;99.90;;;9.62;78.53;100043.75;4914593;29;20200;-67
2022/01/03 02:28:04;;;;;;;3.30;2.20;;;9.50;1.00;;;9.63;79.07;100050.81;4916009;29;20257;-68
2022/01/03 02:30:36;;;;;;;3.13;1.95;;;9.50;99.90;;;9.47;79.48;100052.16;4915015;29;20584;-66
2022/01/03 02:33:07;;;;;;;5.03;2.10;;;9.40;99.90;;;9.48;79.30;100045.72;4921603;29;20209;-67
2022/01/03 02:35:40;;;;;;;4.15;2.10;;;9.40;1.00;;;9.36;79.81;100036.63;4918343;29;20702;-67
2022/01/03 02:38:15;;;;;;;4.70;2.42;;;9.30;1.00;;;9.50;79.32;100037.38;4915934;29;20228;-67
2022/01/03 02:40:44;;;;;;;2.95;2.38;;;9.30;99.90;;;9.45;79.77;100027.22;4915740;29;20217;-66
2022/01/03 02:43:12;;;;;;;7.03;2.50;;;9.30;99.90;;;9.51;79.30;100029.06;4915204;29;20206;-66
2022/01/03 02:45:41;;;;;;;4.05;2.20;;;9.40;99.90;;;9.50;79.15;100029.25;4914593;29;20669;-67
2022/01/03 02:48:11;;;;;;;3.38;2.30;;;9.40;1.00;;;9.47;79.31;100032.41;4915001;29;20737;-66
2022/01/03 02:50:40;;;;;;;2.95;2.05;;;9.30;1.00;;;9.38;79.46;100021.03;4914333;29;20228;-67
2022/01/03 02:53:13;;;;;;;3.25;1.67;;;9.30;99.90;;;9.44;79.22;100014.75;4914455;29;20221;-67
2022/01/03 02:55:42;;;;;;;2.75;2.17;;;9.30;1.00;;;9.52;78.72;100016.38;4914173;29;20561;-67
2022/01/03 02:58:11;;;;;;;2.42;1.77;;;9.30;1.00;;;9.56;78.88;100017.59;4914046;29;20213;-67
2022/01/03 03:00:47;;;;;;;3.70;2.20;;;9.40;99.90;;;9.49;78.36;100011.41;4914523;29;20213;-67
2022/01/03 03:03:34;;;;;;;5.13;2.22;;;9.40;1.00;;;9.40;78.29;100002.72;4914312;29;20213;-66
2022/01/03 03:06:04;;;;;;;3.60;1.73;;;9.30;99.90;;;9.44;78.30;100000.44;4914159;29;20225;-67
2022/01/03 03:08:33;;;;;;;3.28;1.77;;;9.30;99.90;;;9.51;78.37;100003.94;4914238;29;20686;-67
2022/01/03 03:11:03;;;;;;;2.55;1.50;;;9.30;99.90;;;9.54;78.10;99998.06;4914306;29;20224;-67
2022/01/03 03:13:31;;;;;;;2.33;1.40;;;9.40;99.90;;;9.55;77.53;99981.66;4914023;29;20224;-66
2022/01/03 03:16:03;;;;;;;2.13;1.90;;;9.40;1.00;;;9.49;77.85;99973.59;4913938;29;20201;-66
2022/01/03 03:18:32;;;;;;;1.85;1.50;;;9.40;1.00;;;9.59;77.38;99973.94;4914259;29;20241;-68
2022/01/03 03:21:00;;;;;;;1.70;1.60;;;9.50;1.00;;;9.44;77.57;99970.75;4915266;29;20217;-67
2022/01/03 03:23:31;;;;;;;1.80;1.38;;;9.40;1.00;;;9.49;77.44;99957.38;4914363;29;20456;-66
2022/01/03 03:25:59;;;;;;;1.70;1.27;;;9.40;1.00;;;9.46;77.54;99971.34;4915537;29;20197;-67
2022/01/03 03:28:28;;;;;;;2.05;1.55;;;9.30;1.00;;;9.54;77.46;99966.50;4914173;29;20197;-65
2022/01/03 03:31:00;;;;;;;2.92;1.50;;;9.40;1.00;;;9.50;77.12;99964.44;4913972;29;20309;-67
2022/01/03 03:33:40;;;;;;;2.08;1.75;;;9.40;99.90;;;9.56;77.70;99952.78;4914122;29;20217;-67
2022/01/03 03:36:09;;;;;;;2.78;1.40;;;9.40;1.00;;;9.48;77.84;99956.59;4913837;29;20246;-67
2022/01/03 03:38:40;;;;;;;2.58;1.70;;;9.40;1.00;;;9.49;77.45;99949.28;4914432;29;20186;-68
2022/01/03 03:41:13;;;;;;;4.53;1.70;;;9.40;1.00;;;9.43;78.51;99947.47;4914046;29;20702;-67
2022/01/03 03:43:46;;;;;;;1.63;1.33;;;9.40;1.00;;;9.34;78.39;99944.22;4914510;29;20212;-66
2022/01/03 03:46:15;;;;;;;2.72;1.58;;;9.30;99.90;;;9.39;78.51;99938.97;4914119;29;20202;-66
2022/01/03 03:48:43;;;;;;;2.97;1.73;;;9.30;99.90;;;9.34;78.72;99948.78;4914432;29;20202;-67
2022/01/03 03:51:16;;;;;;;5.93;2.00;;;9.20;99.90;;;9.36;79.01;99935.88;4913902;29;20739;-67
2022/01/03 03:53:48;;;;;;;1.80;1.50;;;9.20;1.00;;;9.38;78.78;99931.09;4914200;29;20213;-66
2022/01/03 03:56:19;;;;;;;6.68;1.75;;;9.20;99.90;;;9.38;79.08;99939.19;4913996;29;20750;-66
2022/01/03 03:58:48;;;;;;;3.03;2.03;;;9.30;99.90;;;9.27;78.66;99937.19;4913932;29;20193;-67
2022/01/03 04:01:16;;;;;;;5.15;1.92;;;9.20;1.30;;;9.31;79.35;99938.41;4917648;29;20714;-66
2022/01/03 04:03:50;;;;;;;3.45;1.80;;;9.20;99.90;;;9.33;79.14;99944.44;4917505;29;20211;-67
2022/01/03 04:06:19;;;;;;;2.70;2.50;;;9.20;1.00;;;9.25;79.11;99928.47;4917401;29;20197;-66
2022/01/03 04:08:54;;;;;;;2.90;1.85;;;9.10;99.90;;;9.20;79.74;99941.81;4917626;29;20212;-67
2022/01/03 04:11:23;;;;;;;2.50;1.52;;;9.10;1.00;;;9.22;79.79;99934.31;4917818;29;20217;-68
2022/01/03 04:13:52;;;;;;;2.35;1.85;;;9.10;99.90;;;9.32;79.32;99940.06;4917137;29;20220;-67
2022/01/03 04:16:20;;;;;;;4.15;2.38;;;9.10;99.90;;;9.23;79.38;99946.75;4916917;29;20194;-67
2022/01/03 04:18:49;;;;;;;2.72;2.15;;;9.10;1.00;;;9.17;79.55;99953.84;4917350;29;20255;-67
2022/01/03 04:21:19;;;;;;;3.20;1.67;;;9.10;1.00;;;9.17;79.70;99953.84;4916882;29;20638;-66
2022/01/03 04:23:48;;;;;;;2.10;1.30;;;9.10;99.70;;;9.13;79.66;99964.25;4918829;29;20201;-67
2022/01/03 04:26:18;;;;;;;2.65;1.50;;;9.00;99.90;;;9.18;79.30;99970.88;4918517;29;20227;-66
2022/01/03 04:28:46;;;;;;;2.78;1.25;;;9.00;1.00;;;9.20;79.51;99974.19;4917458;29;20197;-67
2022/01/03 04:31:16;;;;;;;2.83;1.27;;;9.10;1.00;;;9.19;78.36;99977.94;4917592;29;20209;-67
2022/01/03 04:33:46;;;;;;;1.65;0.85;;;9.10;1.00;;;9.16;77.77;99980.00;4917046;29;20222;-66
2022/01/03 04:36:14;;;;;;;2.55;0.82;;;9.10;1.00;;;9.09;77.41;99989.19;4918566;29;20194;-69
2022/01/03 04:38:43;;;;;;;1.40;0.80;;;9.00;1.00;;;9.07;77.90;99980.47;4918834;29;20626;-66
2022/01/03 04:41:12;;;;;;;1.33;1.05;;;9.00;1.00;;;9.03;78.16;99988.19;4918521;29;20209;-68
2022/01/03 04:43:42;;;;;;;1.10;0.70;;;8.90;1.00;;;9.04;77.61;99986.31;4916892;29;20276;-67
2022/01/03 04:46:11;;;;;;;1.98;1.00;;;8.90;1.00;;;9.07;76.35;100007.47;4916972;29;20662;-66
2022/01/03 04:48:42;;;;;;;2.95;0.80;;;9.00;99.90;;;9.13;75.40;100002.03;4916838;29;20189;-67
2022/01/03 04:51:11;;;;;;;1.00;0.55;;;9.00;1.00;;;9.08;74.54;100006.44;4916696;29;20217;-66
2022/01/03 04:53:41;;;;;;;1.10;0.77;;;9.00;1.00;;;9.07;74.31;100002.91;4916468;29;20736;-67
2022/01/03 04:56:11;;;;;;;1.38;0.70;;;9.00;1.00;;;9.04;73.81;100018.69;4932583;29;20695;-68
2022/01/03 04:58:43;;;;;;;0.90;0.60;;;9.00;99.90;;;9.05;73.29;100023.84;4916650;29;20194;-67
2022/01/03 05:01:12;;;;;;;0.93;0.65;;;9.00;99.90;;;9.04;73.28;100016.81;4916632;29;20237;-68
2022/01/03 05:03:42;;;;;;;1.92;0.80;;;9.00;99.90;;;9.03;73.25;100023.25;4916581;29;20190;-67
2022/01/03 05:06:10;;;;;;;1.20;0.80;;;8.90;99.90;;;8.96;72.88;100027.84;4916505;29;20248;-66
2022/01/03 05:08:39;;;;;;;1.00;0.70;;;8.90;99.90;;;8.97;73.44;100042.16;4917808;29;20248;-67
2022/01/03 05:11:08;;;;;;;1.10;0.70;;;8.90;99.90;;;8.97;73.69;100039.47;4915559;29;20300;-67
2022/01/03 05:13:37;;;;;;;1.02;0.70;;;8.90;99.90;;;8.89;73.15;100021.66;4916879;29;20220;-67
2022/01/03 05:16:06;;;;;;;1.30;0.70;;;8.80;99.90;;;8.89;73.42;100050.50;4919019;29;20231;-68
2022/01/03 05:18:36;;;;;;;1.48;0.93;;;8.80;99.90;;;8.89;73.51;100054.03;4917748;29;20202;-68
2022/01/03 05:21:05;;;;;;;0.90;0.65;;;8.80;99.90;;;8.86;72.96;100067.13;4918808;29;20308;-67
2022/01/03 05:23:36;;;;;;;1.42;0.80;;;8.80;99.90;;;8.84;73.28;100082.69;4918469;29;20201;-68
2022/01/03 05:26:06;;;;;;;0.90;0.60;;;8.70;99.90;;;8.83;73.62;100094.50;4917194;29;20197;-67
2022/01/03 05:28:35;;;;;;;4.07;0.90;;;8.70;99.90;;;8.82;73.75;100092.84;4919305;29;20208;-67
2022/01/03 05:31:06;;;;;;;2.25;0.80;;;8.70;99.90;;;8.68;73.92;100083.94;4917269;29;20218;-67
2022/01/03 05:33:34;;;;;;;1.70;0.60;;;8.60;99.90;;;8.64;74.46;100107.81;4932360;29;20655;-67
2022/01/03 05:36:03;;;;;;;1.10;0.70;;;8.60;99.90;;;8.61;75.97;100105.53;4915919;29;20194;-68
2022/01/03 05:38:32;;;;;;;1.48;0.80;;;8.50;1.00;;;8.51;75.31;100099.72;4918088;29;20300;-68
2022/01/03 05:41:00;;;;;;;4.45;0.70;;;8.50;1.00;;;8.45;75.75;100121.28;4916002;29;20228;-67
2022/01/03 05:43:30;;;;;;;1.85;0.77;;;8.40;1.00;;;8.42;76.42;100116.31;4916741;29;20313;-67
2022/01/03 05:45:58;;;;;;;1.60;1.10;;;8.40;1.00;;;8.38;77.70;100128.53;4918264;29;20182;-68
2022/01/03 05:48:29;;;;;;;1.02;0.65;;;8.30;37.30;;;8.31;77.51;100130.41;4918427;29;20202;-67
2022/01/03 05:50:58;;;;;;;2.55;0.77;;;8.30;99.90;;;8.28;78.32;100128.91;4917139;29;20214;-67
2022/01/03 05:53:27;;;;;;;1.15;0.80;;;8.20;1.00;;;8.21;78.69;100137.00;4917039;29;20209;-68
2022/01/03 05:55:57;;;;;;;2.10;0.80;;;8.20;1.00;;;8.20;79.38;100134.50;4916030;29;20213;-65
2022/01/03 05:58:25;;;;;;;1.45;1.02;;;8.20;1.00;;;8.12;80.16;100132.84;4916015;29;20202;-67
2022/01/03 06:00:54;;;;;;;1.95;1.38;;;8.10;1.00;;;8.13;80.72;100145.25;4919157;29;20676;-67
2022/01/03 06:03:24;;;;;;;5.65;2.47;;;8.10;99.90;;;8.11;80.71;100147.34;4921041;29;20209;-63
2022/01/03 06:06:06;;;;;;;2.17;1.10;;;8.10;1.00;;;8.13;80.56;100158.72;4916875;29;20762;-67
2022/01/03 06:08:35;;;;;;;2.28;1.27;;;8.00;99.90;;;8.11;81.10;100152.75;4916457;29;20204;-66
2022/01/03 06:11:04;;;;;;;2.08;1.20;;;8.00;1.00;;;8.13;80.90;100158.72;4915403;29;20264;-65
2022/01/03 06:13:34;;;;;;;5.25;1.30;;;8.10;1.00;;;8.14;80.86;100168.50;4915413;29;20190;-67
2022/01/03 06:16:03;;;;;;;2.45;1.40;;;8.10;1.00;;;8.19;80.93;100176.78;4915565;29;20201;-66
2022/01/03 06:18:34;;;;;;;4.22;1.67;;;8.10;99.90;;;8.20;80.90;100172.22;4915073;29;20237;-68
2022/01/03 06:21:07;;;;;;;2.38;1.58;;;8.10;90.30;;;8.27;81.12;100179.31;4914907;29;20320;-67
2022/01/03 06:23:42;;;;;;;4.65;1.92;;;8.20;99.90;;;8.24;80.92;100182.41;4914919;29;20316;-68
2022/01/03 06:26:12;;;;;;;4.90;2.05;;;8.20;99.90;;;8.32;80.94;100178.72;4916085;29;20281;-66
2022/01/03 06:28:43;;;;;;;4.70;2.30;;;8.20;99.90;;;8.35;80.93;100190.97;4914913;29;20261;-67
2022/01/03 06:31:14;;;;;;;3.17;1.80;;;8.20;99.90;;;8.36;80.78;100192.63;4914865;29;20232;-67
2022/01/03 06:33:42;;;;;;;5.53;1.73;;;8.20;99.90;;;8.33;80.79;100201.94;4915530;29;20681;-68
2022/01/03 06:36:13;;;;;;;3.80;1.88;;;8.30;1.00;;;8.32;80.70;100197.59;4915064;29;20670;-67
2022/01/03 06:38:42;;;;;;;6.70;1.75;;;8.20;1.00;;;8.40;80.61;100200.09;4915223;29;20221;-66
2022/01/03 06:41:11;;;;;;;4.13;2.30;;;8.30;1.00;;;8.42;80.40;100208.81;4915254;29;20217;-66
2022/01/03 06:43:40;;;;;;;4.65;1.60;;;8.30;1.00;;;8.46;80.33;100211.94;4915278;29;20200;-66
2022/01/03 06:46:09;;;;;;;3.10;2.03;;;8.30;99.90;;;8.50;80.16;100215.88;4914759;29;20225;-67
2022/01/03 06:48:38;;;;;;;9.60;2.10;;;8.40;99.90;;;8.57;80.38;100219.41;4916709;29;20220;-68
2022/01/03 06:51:07;;;;;;;7.13;1.73;;;8.40;99.90;;;8.62;79.78;100220.44;4914848;29;20276;-66
2022/01/03 06:53:37;;;;;;;6.85;1.90;;;8.40;99.90;;;8.60;79.95;100224.41;4915105;29;20194;-68
2022/01/03 06:56:06;;;;;;;4.55;2.00;;;8.50;1.00;;;8.56;79.96;100226.69;4914099;29;20190;-67
2022/01/03 06:58:34;;;;;;;12.32;2.20;;;8.50;1.00;;;8.55;80.25;100229.56;4924631;29;20635;-67
2022/01/03 07:01:03;;;;;;;6.20;2.28;;;8.40;1.00;;;8.58;79.97;100234.53;4914211;29;20710;-68
2022/01/03 07:03:33;;;;;;;2.70;1.33;;;8.50;1.00;;;8.65;79.64;100235.41;4914436;29;20288;-67
2022/01/03 07:06:01;;;;;;;6.07;2.30;;;8.50;99.90;;;8.65;79.44;100240.78;4915223;29;20217;-66
2022/01/03 07:08:29;;;;;;;4.30;1.85;;;8.50;1.00;;;8.69;79.17;100247.44;4915522;29;20245;-68
2022/01/03 07:11:00;;;;;;;7.65;2.20;;;8.60;1.00;;;8.82;78.94;100242.03;4915509;29;20206;-67
2022/01/03 07:13:30;;;;;;;4.45;2.30;;;8.60;1.00;;;8.81;79.22;100244.97;4916172;29;20543;-67
2022/01/03 07:18:56;;;;;;;6.53;2.53;;;8.70;1.00;;;8.76;79.15;100259.06;4930332;29;20257;-65
2022/01/03 07:21:26;;;;;;;7.35;2.42;;;8.70;1.00;;;8.80;79.61;100260.31;4923140;23;20230;-71
2022/01/03 07:23:56;;;;;;;12.50;2.40;;;8.70;1.00;;;8.89;78.57;100260.94;4895302;29;20221;-72
2022/01/03 07:26:28;;;;;;;7.78;2.55;;;8.70;1.00;;;8.85;78.86;100275.91;4895132;29;20217;-71
2022/01/03 07:28:57;;;;;;;12.38;2.20;;;8.70;1.00;;;8.93;78.86;100267.59;4906635;29;20261;-72
2022/01/03 07:31:25;;;;;;;19.35;6.63;;;8.80;1.00;;;9.00;78.71;100265.75;4877008;29;20403;-73
2022/01/03 07:33:54;;;;;;;9.70;2.75;;;8.80;1.00;;;8.99;78.62;100275.69;4876355;29;20191;-72
2022/01/03 07:36:22;;;;;;;11.13;3.55;;;8.80;99.90;;;8.95;78.19;100271.75;4895114;29;20183;-74
2022/01/03 07:38:50;;;;;;;8.60;3.70;;;8.80;99.90;;;9.06;77.96;100263.03;4884113;29;20276;-71
2022/01/03 07:41:19;;;;;;;7.20;2.88;;;8.90;27.90;;;9.14;77.55;100279.03;4929704;29;20194;-73
2022/01/03 07:43:48;;;;;;;9.63;2.75;;;8.90;1.00;;;9.18;77.25;100278.59;4887619;29;20194;-71
2022/01/03 07:46:17;;;;;;;11.02;3.20;;;9.00;1.00;;;9.08;76.40;100274.44;4899691;29;20216;-71
2022/01/03 07:48:46;;;;;;;7.22;3.05;;;9.00;99.90;;;9.08;76.41;100279.84;4930048;29;20233;-71
2022/01/03 07:51:14;;;;;;;9.90;3.03;;;9.00;99.90;;;9.10;75.99;100277.75;4899854;29;20289;-71
2022/01/03 07:53:43;;;;;;;8.57;2.60;;;9.00;13.40;;;9.10;75.75;100279.66;4900158;29;20261;-74
2022/01/03 07:56:11;;;;;;;6.47;2.85;;;9.00;1.00;;;9.15;75.80;100280.66;4929938;29;20186;-72
2022/01/03 07:58:41;;;;;;;12.10;3.17;;;9.00;1.00;;;9.18;75.50;100278.59;4899564;29;20210;-72
2022/01/03 08:01:10;;;;;;;11.23;5.55;;;9.10;1.00;;;9.23;74.97;100289.59;4894872;29;20190;-71
2022/01/03 08:03:39;;;;;;;8.32;2.38;;;9.10;1.00;;;9.27;75.31;100283.59;4893176;29;20241;-72
2022/01/03 08:06:10;;;;;;;10.95;2.50;;;9.10;1.00;;;9.22;75.51;100290.63;4897314;29;20238;-73
2022/01/03 08:08:39;;;;;;;12.25;2.22;;;9.10;1.00;;;9.26;75.44;100286.47;4898784;29;20218;-71
2022/01/03 08:11:08;;;;;;;7.28;3.05;;;9.10;1.00;;;9.26;75.71;100291.88;4929397;29;20258;-72
2022/01/03 08:13:36;;;;;;;17.00;3.28;;;9.10;1.00;;;9.33;75.76;100295.41;4899185;29;20194;-71
2022/01/03 08:16:05;;;;;;;12.02;2.72;;;9.20;1.00;;;9.37;75.89;100302.06;4929716;29;20687;-73
2022/01/03 08:18:36;;;;;;;9.50;2.30;;;9.20;1.00;;;9.41;75.73;100301.44;4898590;29;20209;-73
2022/01/03 08:21:04;;;;;;;7.25;2.20;;;9.20;1.00;;;9.30;76.22;100303.91;4913074;29;20213;-74
2022/01/03 08:23:32;;;;;;;15.82;3.30;;;9.20;1.00;;;9.13;76.69;100307.06;4898410;29;20241;-71
2022/01/03 08:26:01;;;;;;;9.38;3.33;;;9.10;5.20;;;9.06;76.79;100305.38;4897852;29;20692;-71
2022/01/03 08:28:29;;;;;;;11.15;3.90;;;9.00;52.40;;;8.95;77.34;100306.00;4898282;29;20214;-72
2022/01/03 08:30:57;;;;;;;10.25;2.70;;;8.90;99.90;;;9.00;77.22;100304.34;4912493;29;20202;-74
2022/01/03 08:33:26;;;;;;;7.38;2.67;;;8.90;99.90;;;9.05;76.82;100296.44;4897958;29;20200;-72
2022/01/03 08:35:57;;;;;;;9.00;4.80;;;8.90;99.90;;;9.17;76.74;100302.06;4897579;29;20177;-73
2022/01/03 08:38:26;;;;;;;11.77;4.38;;;9.00;99.90;;;9.19;76.59;100305.41;4897871;29;20304;-74
2022/01/03 08:40:55;;;;;;;8.98;3.25;;;9.00;99.90;;;9.25;76.58;100301.84;4898052;29;20198;-70
2022/01/03 08:43:23;;;;;;;8.38;3.53;;;9.10;99.90;;;9.41;76.17;100311.41;4885548;29;20231;-73
2022/01/03 08:45:52;;;;;;;9.15;3.78;;;9.20;99.90;;;9.51;76.01;100311.81;4908621;29;20226;-72
2022/01/03 08:48:20;;;;;;;8.60;3.45;;;9.30;41.30;;;9.65;75.45;100302.66;4878737;29;20718;-74
2022/01/03 08:50:48;;;;;;;10.13;3.83;;;9.40;1.00;;;9.57;75.82;100310.97;4879510;29;20179;-71
2022/01/03 08:53:21;;;;;;;12.13;3.17;;;9.40;1.00;;;9.46;75.80;100303.50;4881114;29;20194;-71
2022/01/03 08:55:49;;;;;;;7.22;2.90;;;9.40;1.00;;;9.46;75.82;100306.22;4881829;29;20204;-70
2022/01/03 08:58:18;;;;;;;20.73;3.80;;;9.30;1.00;;;9.46;75.91;100308.91;4883884;29;20242;-75
2022/01/03 09:00:47;;;;;;;9.88;2.83;;;9.30;1.00;;;9.71;74.96;100298.28;4891673;29;20233;-71
2022/01/03 09:03:17;;;;;;;9.15;4.25;;;9.50;1.00;;;9.75;74.50;100297.66;4889985;29;20576;-69
2022/01/03 09:05:46;;;;;;;14.20;4.55;;;9.50;1.00;;;9.77;73.88;100300.97;4881109;29;20290;-70
2022/01/03 09:08:16;;;;;;;11.20;3.80;;;9.60;1.00;;;9.80;74.03;100305.94;4880344;29;20218;-69
2022/01/03 09:10:46;;;;;;;9.57;2.83;;;9.60;1.00;;;9.90;73.29;100309.03;4881404;29;20840;-71
2022/01/03 09:13:14;;;;;;;12.20;3.20;;;9.60;99.90;;;9.95;73.15;100303.84;4881556;29;20432;-70
2022/01/03 09:15:46;;;;;;;12.10;4.20;;;9.70;99.90;;;10.01;72.73;100304.88;4881960;29;20195;-72
2022/01/03 09:18:17;;;;;;;12.82;2.85;;;9.80;99.90;;;10.06;72.56;100304.22;4878316;29;20991;-69
2022/01/03 09:20:46;;;;;;;17.33;4.28;;;9.90;99.90;;;10.02;72.96;100307.34;4879596;29;20266;-70
2022/01/03 09:23:23;;;;;;;15.68;4.00;;;9.90;99.90;;;10.06;72.98;100315.03;4878750;29;20195;-70
2022/01/03 09:28:52;;;;;;;13.05;3.97;;;9.80;99.90;;;9.84;72.92;100315.28;4909172;29;20246;-69
2022/01/03 09:31:26;;;;;;;11.32;3.25;;;9.70;99.90;;;9.88;72.91;100316.53;4879977;29;20269;-71
2022/01/03 09:33:58;;;;;;;11.15;3.30;;;9.70;99.90;;;10.00;72.73;100317.53;4879690;29;20252;-71
2022/01/03 09:36:29;;;;;;;12.60;3.20;;;9.80;99.90;;;9.97;72.39;100317.94;4910285;29;20199;-71
2022/01/03 09:39:01;;;;;;;11.70;3.00;;;9.80;99.90;;;10.05;71.58;100325.00;4880358;29;20465;-71
2022/01/03 09:41:33;;;;;;;13.35;3.35;;;9.90;99.90;;;10.06;71.49;100320.44;4893961;29;20202;-71
2022/01/03 09:44:05;;;;;;;15.27;4.53;;;9.90;99.90;;;10.19;71.47;100325.84;4880823;29;20199;-72
2022/01/03 09:46:36;;;;;;;11.50;2.90;;;10.00;99.90;;;10.36;71.11;100314.31;4910447;29;20211;-71
2022/01/03 09:49:09;;;;;;;12.43;4.10;;;10.10;99.90;;;10.34;70.28;100307.47;4909399;29;20243;-69
2022/01/03 09:51:40;;;;;;;11.23;3.33;;;10.10;99.90;;;10.36;70.50;100318.91;4879676;29;20189;-70
2022/01/03 09:54:13;;;;;;;10.90;3.10;;;10.10;99.90;;;10.52;69.60;100310.28;4882765;29;20420;-72
2022/01/03 09:56:45;;;;;;;7.20;2.47;;;10.30;99.90;;;10.57;69.38;100313.19;4882984;29;20415;-72
2022/01/03 09:59:15;;;;;;;10.37;3.40;;;10.30;99.90;;;10.54;68.47;100316.31;4910585;29;20640;-71
2022/01/03 10:01:45;;;;;;;12.33;3.40;;;10.40;99.90;;;10.45;69.35;100314.91;4910967;29;20479;-72
2022/01/03 10:04:15;;;;;;;6.57;3.13;;;10.30;99.90;;;10.42;68.81;100312.63;4881696;29;20807;-69
2022/01/03 10:06:44;;;;;;;7.68;4.00;;;10.30;99.90;;;10.44;69.50;100307.84;4879332;29;20499;-70
2022/01/03 10:09:13;;;;;;;14.02;3.55;;;10.30;99.90;;;10.44;69.94;100308.69;4881022;29;20207;-71
2022/01/03 10:11:43;;;;;;;12.60;3.47;;;10.30;99.90;;;10.35;70.11;100311.84;4880110;29;20209;-70
2022/01/03 10:14:12;;;;;;;13.93;3.40;;;10.20;99.90;;;10.26;70.55;100310.44;4879482;29;20187;-69
2022/01/03 10:16:42;;;;;;;7.55;3.30;;;10.20;99.90;;;10.13;70.79;100310.41;4879722;29;20512;-71
2022/01/03 10:19:21;;;;;;;16.00;3.58;;;10.10;99.90;;;10.20;70.93;100303.16;4880336;29;20587;-73
2022/01/03 10:21:52;;;;;;;13.70;2.90;;;10.10;99.90;;;10.29;70.13;100304.56;4894490;29;20243;-71
2022/01/03 10:24:33;;;;;;;14.00;3.73;;;10.10;99.90;;;10.33;70.63;100308.50;4894463;29;20448;-71
2022/01/03 10:27:04;;;;;;;8.70;3.30;;;10.10;99.90;;;10.44;69.86;100315.97;4880194;29;20598;-70
2022/01/03 10:29:33;;;;;;;11.35;3.88;;;10.20;99.90;;;10.53;69.79;100305.72;4909039;29;20931;-69
2022/01/03 10:32:05;;;;;;;15.30;3.23;;;10.30;99.90;;;10.73;69.34;100307.28;4892760;29;20190;-70
2022/01/03 10:34:34;;;;;;;10.77;3.50;;;10.40;99.90;;;10.92;68.53;100310.06;4878691;29;20427;-71
2022/01/03 10:37:12;;;;;;;10.83;3.80;;;10.60;99.90;;;11.20;68.25;100316.72;4878301;29;20438;-71
2022/01/03 10:39:41;;;;;;;11.97;5.03;;;10.80;99.90;;;11.38;67.21;100307.81;4879013;29;20849;-70
2022/01/03 10:42:20;;;;;;;12.90;4.60;;;11.00;99.90;;;11.37;67.86;100310.78;4877499;29;20451;-70
2022/01/03 10:44:50;;;;;;;9.80;4.17;;;11.10;99.90;;;11.23;68.02;100318.97;4879942;29;20786;-71
2022/01/03 10:47:33;;;;;;;10.17;4.37;;;11.10;99.90;;;11.02;68.58;100315.81;4881324;29;20859;-72